Time;durP1;ratioP1;P1;durP2;ratioP2;P2;SDS_P1;SDS_P2;PMS_P1;PMS_P2;Temp;Humidity;BMP_temperature;BMP_pressure;BME280_temperature;BME280_humidity;BME280_pressure;Samples;Min_cycle;Max_cycle;Signal;HPM_P1;HPM_P2
2021/07/04 00:00:36;;;;;;;7.20;3.77;;;20.20;99.90;;;;;;1885861;75;21719;-73
2021/07/04 00:03:05;;;;;;;6.95;3.90;;;20.10;99.90;;;;;;1887306;76;21144;-72
2021/07/04 00:05:36;;;;;;;4.92;3.90;;;20.20;99.90;;;;;;1867515;76;21092;-73
2021/07/04 00:08:04;;;;;;;5.78;3.87;;;20.20;99.90;;;;;;1881426;75;21199;-72
2021/07/04 00:10:38;;;;;;;5.95;3.87;;;20.20;99.90;;;;;;1903367;75;21090;-73
2021/07/04 00:13:06;;;;;;;7.22;4.65;;;20.20;99.90;;;;;;1910907;74;21634;-75
2021/07/04 00:15:39;;;;;;;6.42;4.00;;;20.20;99.90;;;;;;1902423;75;21081;-74
2021/07/04 00:18:05;;;;;;;8.25;4.60;;;20.20;99.90;;;;;;1909776;74;22189;-73
2021/07/04 00:20:35;;;;;;;8.68;4.97;;;;;;;;;;1908946;75;21062;-72
2021/07/04 00:23:02;;;;;;;6.30;4.25;;;;;;;;;;1895387;75;21153;-72
2021/07/04 00:25:31;;;;;;;4.67;4.05;;;20.40;99.90;;;;;;1893247;75;21059;-72
2021/07/04 00:27:59;;;;;;;5.65;4.45;;;20.40;99.90;;;;;;1905710;74;21117;-72
2021/07/04 00:30:27;;;;;;;8.03;4.80;;;20.40;99.90;;;;;;1899159;75;21540;-73
2021/07/04 00:32:54;;;;;;;6.53;4.72;;;20.30;99.90;;;;;;1899077;75;21082;-72
2021/07/04 00:35:23;;;;;;;5.72;4.30;;;20.30;99.90;;;;;;1910423;75;21078;-72
2021/07/04 00:37:53;;;;;;;11.22;4.50;;;20.30;99.90;;;;;;1900937;75;21074;-72
2021/07/04 00:40:22;;;;;;;7.08;4.75;;;20.40;99.90;;;;;;1902193;75;21020;-72
2021/07/04 00:42:49;;;;;;;6.35;4.10;;;20.30;99.90;;;;;;1900062;75;21637;-73
2021/07/04 00:45:20;;;;;;;7.60;4.30;;;20.30;99.90;;;;;;1900711;75;20975;-72
2021/07/04 00:47:49;;;;;;;6.95;4.30;;;20.30;99.90;;;;;;1900293;74;21843;-72
2021/07/04 00:50:19;;;;;;;5.78;4.33;;;20.30;99.90;;;;;;1900644;75;21027;-72
2021/07/04 00:52:47;;;;;;;7.08;4.22;;;20.40;99.90;;;;;;1904083;75;21007;-72
2021/07/04 00:55:16;;;;;;;5.87;3.90;;;20.40;99.90;;;;;;1900813;75;21088;-72
2021/07/04 00:57:45;;;;;;;6.80;4.30;;;20.40;99.90;;;;;;1910778;75;21677;-72
2021/07/04 01:00:15;;;;;;;7.83;3.75;;;20.40;99.90;;;;;;1911617;74;21058;-72
2021/07/04 01:02:43;;;;;;;6.00;4.30;;;20.40;99.90;;;;;;1911068;75;21037;-72
2021/07/04 01:05:13;;;;;;;6.15;4.10;;;20.40;99.90;;;;;;1911198;75;21056;-71
2021/07/04 01:07:42;;;;;;;4.70;3.62;;;20.50;99.90;;;;;;1910143;74;21145;-72
2021/07/04 01:10:12;;;;;;;8.13;4.53;;;20.40;99.90;;;;;;1910434;75;21069;-72
2021/07/04 01:12:42;;;;;;;11.63;3.87;;;20.40;99.90;;;;;;1885547;75;21081;-72
2021/07/04 01:15:10;;;;;;;11.38;4.60;;;20.40;99.90;;;;;;1883934;76;21100;-72
2021/07/04 01:17:38;;;;;;;4.95;4.20;;;20.40;99.90;;;;;;1883619;75;21058;-71
2021/07/04 01:20:11;;;;;;;5.55;3.70;;;20.50;99.90;;;;;;1884047;75;21085;-72
2021/07/04 01:22:40;;;;;;;4.85;4.03;;;20.50;99.90;;;;;;1894345;75;21078;-73
2021/07/04 01:25:14;;;;;;;8.98;4.72;;;20.50;99.90;;;;;;1887743;75;22066;-73
2021/07/04 01:27:41;;;;;;;4.83;3.95;;;20.50;99.90;;;;;;1884180;76;21571;-72
2021/07/04 01:30:11;;;;;;;4.75;4.08;;;20.50;99.90;;;;;;1890964;75;21081;-72
2021/07/04 01:32:38;;;;;;;8.65;4.65;;;20.50;99.90;;;;;;1897579;75;21090;-73
2021/07/04 01:35:06;;;;;;;9.85;4.53;;;20.50;99.90;;;;;;1848382;77;21493;-72
2021/07/04 01:37:34;;;;;;;6.53;4.00;;;20.50;99.90;;;;;;1882320;75;21232;-72
2021/07/04 01:40:01;;;;;;;6.92;4.67;;;20.50;99.90;;;;;;1894801;75;21481;-73
2021/07/04 01:42:29;;;;;;;5.15;4.08;;;20.50;99.90;;;;;;1910465;75;21151;-73
2021/07/04 01:44:56;;;;;;;6.78;4.03;;;20.60;99.90;;;;;;1910450;75;21086;-73
2021/07/04 01:47:24;;;;;;;5.72;4.00;;;20.50;99.90;;;;;;1899678;75;21038;-73
2021/07/04 01:49:51;;;;;;;4.72;3.72;;;20.60;99.90;;;;;;1910207;75;21155;-72
2021/07/04 01:52:19;;;;;;;5.80;4.47;;;20.60;99.90;;;;;;1910299;75;21085;-72
2021/07/04 01:54:46;;;;;;;4.97;3.90;;;20.60;99.90;;;;;;1910393;75;21125;-73
2021/07/04 01:57:14;;;;;;;6.83;4.12;;;20.60;99.90;;;;;;1891465;75;21449;-73
2021/07/04 01:59:43;;;;;;;5.90;4.22;;;20.60;99.90;;;;;;1883978;75;21113;-73
2021/07/04 02:02:11;;;;;;;6.75;4.17;;;20.60;99.90;;;;;;1891323;75;21090;-73
2021/07/04 02:04:41;;;;;;;7.25;4.28;;;20.60;99.90;;;;;;1877509;76;21110;-73
2021/07/04 02:07:16;;;;;;;5.53;3.83;;;20.60;99.90;;;;;;1878064;76;21528;-72
2021/07/04 02:09:49;;;;;;;3.90;3.42;;;20.60;99.90;;;;;;1880353;75;21630;-73
2021/07/04 02:12:18;;;;;;;4.67;3.95;;;20.70;99.90;;;;;;1909580;75;21101;-73
2021/07/04 02:14:46;;;;;;;4.92;3.90;;;20.70;99.90;;;;;;1905930;75;21143;-73
2021/07/04 02:17:14;;;;;;;5.42;3.65;;;20.60;99.90;;;;;;1879107;76;21030;-73
2021/07/04 02:19:42;;;;;;;4.60;3.52;;;20.60;99.90;;;;;;1878927;76;21139;-72
2021/07/04 02:22:11;;;;;;;5.85;3.77;;;20.60;99.90;;;;;;1878982;76;21014;-72
2021/07/04 02:24:39;;;;;;;6.00;4.37;;;20.60;99.90;;;;;;1884668;76;21120;-72
2021/07/04 02:27:07;;;;;;;9.45;3.98;;;20.60;99.90;;;;;;1904961;75;21136;-71
2021/07/04 02:29:35;;;;;;;7.28;3.65;;;20.50;99.90;;;;;;1885733;75;21003;-72
2021/07/04 02:32:03;;;;;;;8.58;4.05;;;20.50;99.90;;;;;;1877213;76;20999;-72
2021/07/04 02:34:30;;;;;;;5.12;4.17;;;20.50;99.90;;;;;;1877138;76;21097;-70
2021/07/04 02:36:58;;;;;;;6.00;4.00;;;20.50;99.90;;;;;;1876252;76;21066;-71
2021/07/04 02:39:26;;;;;;;5.45;4.15;;;20.50;99.90;;;;;;1878284;75;21034;-72
2021/07/04 02:41:53;;;;;;;4.75;4.12;;;20.50;99.90;;;;;;1910133;75;21062;-70
2021/07/04 02:44:21;;;;;;;6.03;5.03;;;20.50;99.90;;;;;;1908419;75;21528;-72
2021/07/04 02:46:49;;;;;;;7.97;4.20;;;20.40;99.90;;;;;;1905936;75;21093;-72
2021/07/04 02:49:16;;;;;;;5.12;4.40;;;20.40;99.90;;;;;;1884102;76;21191;-71
2021/07/04 02:51:44;;;;;;;7.33;4.87;;;20.40;99.90;;;;;;1883756;75;21155;-70
2021/07/04 02:54:11;;;;;;;7.30;4.70;;;20.40;99.90;;;;;;1874568;75;21114;-74
2021/07/04 02:56:39;;;;;;;5.40;4.47;;;20.40;99.90;;;;;;1865390;77;21168;-71
2021/07/04 02:59:07;;;;;;;5.67;4.20;;;20.40;99.90;;;;;;1887835;73;21496;-70
2021/07/04 03:01:34;;;;;;;5.72;4.33;;;20.40;99.90;;;;;;1879646;75;21090;-71
2021/07/04 03:04:02;;;;;;;10.15;4.92;;;20.40;99.90;;;;;;1912523;75;21116;-71
2021/07/04 03:06:29;;;;;;;5.53;4.15;;;20.30;99.90;;;;;;1893734;75;21086;-69
2021/07/04 03:08:57;;;;;;;6.90;4.20;;;20.30;99.90;;;;;;1880835;75;21086;-70
2021/07/04 03:11:24;;;;;;;5.50;4.00;;;20.30;99.90;;;;;;1872864;75;21105;-71
2021/07/04 03:13:52;;;;;;;4.92;4.15;;;20.30;99.90;;;;;;1923928;74;21057;-71
2021/07/04 03:16:19;;;;;;;5.35;3.92;;;20.30;99.90;;;;;;1910773;74;21478;-71
2021/07/04 03:18:47;;;;;;;5.80;4.00;;;20.30;99.90;;;;;;1894543;75;21090;-71
2021/07/04 03:21:14;;;;;;;5.97;4.08;;;20.30;99.90;;;;;;1898330;75;21118;-71
2021/07/04 03:23:42;;;;;;;6.33;4.37;;;20.30;99.90;;;;;;1895724;75;21543;-70
2021/07/04 03:26:09;;;;;;;5.47;3.90;;;20.30;99.90;;;;;;1898341;75;21019;-71
2021/07/04 03:28:37;;;;;;;7.65;3.87;;;20.30;99.90;;;;;;1898122;74;21102;-71
2021/07/04 03:31:04;;;;;;;4.05;3.52;;;20.30;99.90;;;;;;1897910;75;21670;-72
2021/07/04 03:33:32;;;;;;;5.10;3.87;;;20.30;99.90;;;;;;1895567;75;22140;-70
2021/07/04 03:35:59;;;;;;;4.47;3.67;;;20.30;99.90;;;;;;1896150;75;21478;-72
2021/07/04 03:38:27;;;;;;;6.00;3.85;;;20.30;99.90;;;;;;1896048;75;21095;-72
2021/07/04 03:40:55;;;;;;;9.90;4.40;;;20.30;99.90;;;;;;1877960;75;21138;-72
2021/07/04 03:43:22;;;;;;;8.30;4.15;;;20.30;99.90;;;;;;1873481;75;21051;-72
2021/07/04 03:45:50;;;;;;;6.20;4.25;;;20.20;99.90;;;;;;1897851;75;21095;-72
2021/07/04 03:48:17;;;;;;;5.60;3.90;;;20.20;99.90;;;;;;1898061;75;21125;-72
2021/07/04 03:50:45;;;;;;;6.97;4.05;;;20.30;99.90;;;;;;1911240;74;21550;-71
2021/07/04 03:53:13;;;;;;;6.08;4.58;;;20.30;99.90;;;;;;1907490;74;21180;-72
2021/07/04 03:55:40;;;;;;;8.93;4.65;;;20.20;99.90;;;;;;1897675;75;21078;-72
2021/07/04 03:58:08;;;;;;;7.58;4.20;;;20.30;99.90;;;;;;1846744;77;21090;-72
2021/07/04 04:00:36;;;;;;;7.08;4.50;;;20.30;99.90;;;;;;1877086;75;21153;-72
2021/07/04 04:03:03;;;;;;;7.03;4.58;;;20.30;99.90;;;;;;1874942;76;21082;-71
2021/07/04 04:05:31;;;;;;;5.95;4.50;;;20.30;99.90;;;;;;1874888;76;21191;-72
2021/07/04 04:07:58;;;;;;;8.90;4.50;;;20.30;99.90;;;;;;1874890;76;21105;-72
2021/07/04 04:10:26;;;;;;;5.40;4.25;;;20.20;99.90;;;;;;1887485;75;21115;-71
2021/07/04 04:12:53;;;;;;;8.30;4.47;;;20.20;99.90;;;;;;1921742;74;21062;-72
2021/07/04 04:15:21;;;;;;;7.40;4.47;;;20.30;99.90;;;;;;1913916;74;21599;-72
2021/07/04 04:17:48;;;;;;;10.70;4.58;;;20.20;99.90;;;;;;1884841;74;21085;-72
2021/07/04 04:20:16;;;;;;;6.97;4.72;;;20.20;99.90;;;;;;1785799;80;21133;-72
2021/07/04 04:22:43;;;;;;;8.40;5.10;;;20.30;99.90;;;;;;1874975;76;21050;-70
2021/07/04 04:25:11;;;;;;;8.03;4.67;;;20.30;99.90;;;;;;1874797;76;21534;-73
2021/07/04 04:27:39;;;;;;;7.30;4.50;;;20.30;99.90;;;;;;1875103;76;21097;-73
2021/07/04 04:30:08;;;;;;;6.65;4.72;;;20.20;99.90;;;;;;1874582;76;21133;-72
2021/07/04 04:32:36;;;;;;;11.30;4.60;;;20.30;99.90;;;;;;1900654;75;21573;-72
2021/07/04 04:35:04;;;;;;;5.53;4.70;;;20.30;99.90;;;;;;1905472;75;21522;-72
2021/07/04 04:37:31;;;;;;;5.35;4.40;;;20.30;99.90;;;;;;1905581;75;21160;-71
2021/07/04 04:39:59;;;;;;;6.53;5.12;;;20.30;99.90;;;;;;1896122;75;21122;-72
2021/07/04 04:42:26;;;;;;;7.12;4.75;;;20.30;99.90;;;;;;1878176;74;21147;-71
2021/07/04 04:44:54;;;;;;;9.05;5.22;;;20.30;99.90;;;;;;1907688;75;21042;-72
2021/07/04 04:47:21;;;;;;;6.85;5.03;;;20.40;99.90;;;;;;1905478;75;21086;-72
2021/07/04 04:49:49;;;;;;;7.40;5.40;;;20.40;99.90;;;;;;1892231;75;21123;-71
2021/07/04 04:52:16;;;;;;;7.87;4.80;;;20.40;99.90;;;;;;1887832;75;22068;-71
2021/07/04 04:54:44;;;;;;;8.10;5.17;;;20.40;99.90;;;;;;1890237;75;21121;-72
2021/07/04 04:57:11;;;;;;;8.88;5.50;;;20.40;99.90;;;;;;1887319;75;21500;-71
2021/07/04 04:59:40;;;;;;;7.70;5.62;;;20.50;99.90;;;;;;1866132;77;21149;-71
2021/07/04 05:02:07;;;;;;;8.43;5.15;;;20.40;99.90;;;;;;1866297;77;21203;-72
2021/07/04 05:04:35;;;;;;;7.62;5.25;;;20.40;99.90;;;;;;1880344;75;21065;-71
2021/07/04 05:07:03;;;;;;;9.70;5.30;;;20.50;99.90;;;;;;1913278;74;21049;-70
2021/07/04 05:09:30;;;;;;;8.08;5.03;;;20.50;99.90;;;;;;1901896;75;21126;-71
2021/07/04 05:11:58;;;;;;;7.00;5.60;;;20.50;99.90;;;;;;1891398;75;21077;-71
2021/07/04 05:14:25;;;;;;;8.13;5.62;;;20.50;99.90;;;;;;1889491;76;21082;-70
2021/07/04 05:16:53;;;;;;;9.28;6.00;;;20.50;99.90;;;;;;1908524;74;21050;-71
2021/07/04 05:19:20;;;;;;;6.87;5.50;;;20.50;99.90;;;;;;1925901;74;21280;-71
2021/07/04 05:21:48;;;;;;;6.85;5.58;;;20.50;99.90;;;;;;1925802;74;21604;-71
2021/07/04 05:24:16;;;;;;;7.90;5.62;;;20.60;99.90;;;;;;1925066;74;21081;-71
2021/07/04 05:26:43;;;;;;;6.65;5.80;;;20.60;99.90;;;;;;1873529;75;21066;-71
2021/07/04 05:29:11;;;;;;;6.33;5.65;;;20.60;99.90;;;;;;1894086;75;21090;-70
2021/07/04 05:31:39;;;;;;;9.50;5.58;;;20.60;99.90;;;;;;1899617;74;21536;-71
2021/07/04 05:34:06;;;;;;;7.08;6.00;;;20.60;99.90;;;;;;1907728;74;21106;-71
2021/07/04 05:36:35;;;;;;;8.83;6.03;;;20.60;99.90;;;;;;1913252;75;21500;-71
2021/07/04 05:39:03;;;;;;;6.65;5.60;;;20.60;99.90;;;;;;1913193;75;21062;-71
2021/07/04 05:41:30;;;;;;;6.20;5.60;;;20.60;99.90;;;;;;1884906;75;21106;-71
2021/07/04 05:43:58;;;;;;;7.72;6.25;;;20.60;99.90;;;;;;1889453;76;21171;-70
2021/07/04 05:46:25;;;;;;;7.10;5.90;;;20.60;99.90;;;;;;1898825;75;21155;-71
2021/07/04 05:48:53;;;;;;;7.70;5.72;;;20.60;99.90;;;;;;1913024;75;21540;-70
2021/07/04 05:51:20;;;;;;;7.22;5.78;;;20.60;99.90;;;;;;1913033;75;21057;-71
2021/07/04 05:53:48;;;;;;;9.98;6.12;;;20.60;99.90;;;;;;1911328;75;21126;-71
2021/07/04 05:56:15;;;;;;;6.72;5.62;;;20.60;99.90;;;;;;1897722;75;21167;-71
2021/07/04 05:58:43;;;;;;;7.17;5.42;;;20.60;99.90;;;;;;1890330;75;21167;-72
2021/07/04 06:01:10;;;;;;;8.88;5.80;;;20.60;99.90;;;;;;1895987;74;21144;-71
2021/07/04 06:03:38;;;;;;;7.33;5.58;;;20.60;99.90;;;;;;1898078;75;21075;-73
2021/07/04 06:06:05;;;;;;;7.37;5.78;;;20.60;99.90;;;;;;1898127;75;21181;-72
2021/07/04 06:08:33;;;;;;;7.58;6.37;;;20.60;99.90;;;;;;1898023;75;21074;-72
2021/07/04 06:11:00;;;;;;;6.78;6.00;;;20.60;99.90;;;;;;1897923;75;21682;-72
2021/07/04 06:13:28;;;;;;;7.28;5.62;;;20.70;99.90;;;;;;1897592;75;21098;-72
2021/07/04 06:15:55;;;;;;;7.22;6.17;;;20.70;99.90;;;;;;1893165;74;21195;-71
2021/07/04 06:18:24;;;;;;;6.90;6.20;;;20.70;99.90;;;;;;1883578;75;21019;-72
2021/07/04 06:20:52;;;;;;;8.03;6.00;;;20.70;99.90;;;;;;1892974;75;21208;-72
2021/07/04 06:23:20;;;;;;;8.90;6.12;;;20.80;99.90;;;;;;1898530;75;21171;-72
2021/07/04 06:25:47;;;;;;;7.67;5.97;;;20.80;99.90;;;;;;1898497;75;21039;-72
2021/07/04 06:28:15;;;;;;;8.35;6.67;;;20.80;99.90;;;;;;1894329;75;21548;-73
2021/07/04 06:30:42;;;;;;;10.08;6.45;;;20.90;99.90;;;;;;1895983;75;21209;-72
2021/07/04 06:33:10;;;;;;;9.83;6.70;;;20.90;99.90;;;;;;1898263;75;21094;-71
2021/07/04 06:35:39;;;;;;;10.15;8.10;;;20.90;99.90;;;;;;1898347;75;21110;-72
2021/07/04 06:38:06;;;;;;;9.50;7.10;;;21.00;99.90;;;;;;1898313;75;21501;-72
2021/07/04 06:40:34;;;;;;;9.38;7.15;;;21.00;99.90;;;;;;1898133;75;21329;-71
2021/07/04 06:43:01;;;;;;;10.82;7.83;;;21.00;99.90;;;;;;1898334;75;21088;-72
2021/07/04 06:45:29;;;;;;;9.35;7.92;;;21.10;99.90;;;;;;1890765;75;21086;-71
2021/07/04 06:47:56;;;;;;;11.00;7.75;;;21.10;99.90;;;;;;1912893;75;21069;-71
2021/07/04 06:50:24;;;;;;;10.68;8.20;;;21.20;99.90;;;;;;1905159;74;21608;-72
2021/07/04 06:52:52;;;;;;;11.30;8.50;;;21.20;99.90;;;;;;1897968;75;21039;-72
2021/07/04 06:55:20;;;;;;;10.30;8.15;;;21.20;99.90;;;;;;1902243;75;21063;-72
2021/07/04 06:57:47;;;;;;;9.15;8.00;;;21.20;99.90;;;;;;1904514;75;21091;-72
2021/07/04 07:00:16;;;;;;;10.30;8.40;;;21.30;99.90;;;;;;1903282;75;21121;-72
2021/07/04 07:02:45;;;;;;;9.30;8.28;;;21.40;99.90;;;;;;1896321;75;21161;-71
2021/07/04 07:05:13;;;;;;;8.20;7.40;;;21.30;99.90;;;;;;1908147;75;21058;-72
2021/07/04 07:07:41;;;;;;;10.10;8.08;;;21.40;99.90;;;;;;1898155;75;21078;-72
2021/07/04 07:10:11;;;;;;;12.88;8.68;;;21.40;99.90;;;;;;1897582;75;21094;-71
2021/07/04 07:12:39;;;;;;;8.80;7.75;;;21.40;99.90;;;;;;1915717;74;21099;-72
2021/07/04 07:15:08;;;;;;;10.15;7.87;;;21.40;99.90;;;;;;1915502;74;21493;-72
2021/07/04 07:17:35;;;;;;;8.60;7.65;;;21.50;99.90;;;;;;1898521;75;21204;-72
2021/07/04 07:20:05;;;;;;;8.93;7.87;;;21.50;99.90;;;;;;1898886;75;21607;-72
2021/07/04 07:22:32;;;;;;;10.98;7.78;;;21.60;99.90;;;;;;1898673;75;21039;-70
2021/07/04 07:25:00;;;;;;;10.72;8.10;;;21.60;99.90;;;;;;1899174;75;21144;-71
2021/07/04 07:27:27;;;;;;;13.15;8.28;;;21.60;99.90;;;;;;1898212;75;21082;-71
2021/07/04 07:29:55;;;;;;;9.58;8.48;;;21.70;99.90;;;;;;1897833;75;21203;-70
2021/07/04 07:32:22;;;;;;;14.00;8.73;;;21.70;99.90;;;;;;1885888;74;21163;-71
2021/07/04 07:34:50;;;;;;;12.73;8.48;;;21.70;99.90;;;;;;1898439;74;21133;-70
2021/07/04 07:37:18;;;;;;;9.28;8.15;;;21.70;99.90;;;;;;1901144;74;21482;-71
2021/07/04 07:39:46;;;;;;;13.40;8.63;;;21.80;99.90;;;;;;1913732;74;21085;-70
2021/07/04 07:42:13;;;;;;;14.30;8.45;;;21.80;99.90;;;;;;1916037;75;21155;-71
2021/07/04 07:44:41;;;;;;;15.68;9.20;;;21.80;99.90;;;;;;1895485;74;21093;-70
2021/07/04 07:47:09;;;;;;;13.53;8.15;;;21.80;99.90;;;;;;1908591;75;21328;-72
2021/07/04 07:49:37;;;;;;;9.30;7.95;;;21.80;99.90;;;;;;1909250;75;22183;-70
2021/07/04 07:52:04;;;;;;;14.38;10.90;;;21.70;99.90;;;;;;1909330;75;21175;-71
2021/07/04 07:54:32;;;;;;;14.60;10.40;;;21.70;99.90;;;;;;1895307;75;21038;-72
2021/07/04 07:57:02;;;;;;;10.70;8.18;;;21.80;99.90;;;;;;1907079;75;21085;-71
2021/07/04 07:59:31;;;;;;;11.20;8.90;;;21.80;99.90;;;;;;1916269;75;21138;-72
2021/07/04 08:01:59;;;;;;;12.47;9.23;;;21.90;99.90;;;;;;1896365;75;21503;-70
2021/07/04 08:04:27;;;;;;;12.20;9.60;;;21.90;99.90;;;;;;1894681;74;21176;-71
2021/07/04 08:06:55;;;;;;;12.65;8.80;;;21.90;99.90;;;;;;1867081;75;21112;-71
2021/07/04 08:09:22;;;;;;;11.60;8.60;;;21.90;99.90;;;;;;1877952;75;21051;-71
2021/07/04 08:11:50;;;;;;;12.00;8.93;;;21.90;99.90;;;;;;1897949;75;21589;-72
2021/07/04 08:14:17;;;;;;;10.93;9.23;;;22.00;99.90;;;;;;1899570;75;21086;-70
2021/07/04 08:16:45;;;;;;;13.38;9.85;;;22.00;99.90;;;;;;1899320;74;21082;-69
2021/07/04 08:19:13;;;;;;;13.32;9.73;;;22.00;99.90;;;;;;1900687;75;21059;-71
2021/07/04 08:22:00;;;;;;;10.85;9.10;;;22.00;99.90;;;;;;1898654;75;21086;-71
2021/07/04 08:24:27;;;;;;;14.15;10.08;;;22.00;99.90;;;;;;1895490;75;21318;-69
2021/07/04 08:26:55;;;;;;;16.17;9.90;;;22.00;99.90;;;;;;1913689;74;21114;-71
2021/07/04 08:29:23;;;;;;;12.33;9.98;;;22.00;99.90;;;;;;1909477;75;21091;-71
2021/07/04 08:31:50;;;;;;;13.75;10.48;;;22.10;99.90;;;;;;1928040;74;21085;-72
2021/07/04 08:34:18;;;;;;;15.45;10.68;;;22.10;99.90;;;;;;1923466;74;21151;-70
2021/07/04 08:36:45;;;;;;;13.45;10.95;;;22.10;99.90;;;;;;1930812;74;21085;-70
2021/07/04 08:39:13;;;;;;;18.60;12.30;;;22.10;99.90;;;;;;1933655;72;21066;-72
2021/07/04 08:41:41;;;;;;;17.42;12.20;;;22.20;99.90;;;;;;1940486;74;21082;-72
2021/07/04 08:44:10;;;;;;;23.35;14.53;;;22.20;99.90;;;;;;1924374;74;21108;-71
2021/07/04 08:46:43;;;;;;;24.43;14.18;;;22.20;99.90;;;;;;1918053;73;21038;-70
2021/07/04 08:49:12;;;;;;;21.35;14.43;;;22.30;99.90;;;;;;1938541;73;21603;-71
2021/07/04 08:51:41;;;;;;;23.92;14.47;;;22.30;99.90;;;;;;1939774;74;21183;-71
2021/07/04 08:54:08;;;;;;;23.40;14.73;;;22.30;99.90;;;;;;1934839;72;21587;-70
2021/07/04 08:56:37;;;;;;;21.65;14.30;;;22.30;99.90;;;;;;1938365;72;21745;-71
2021/07/04 08:59:05;;;;;;;23.52;13.90;;;22.40;99.90;;;;;;1921243;72;21113;-71
2021/07/04 09:01:33;;;;;;;22.98;14.38;;;22.40;99.90;;;;;;1913857;74;21471;-71
2021/07/04 09:04:12;;;;;;;26.80;15.28;;;22.40;99.90;;;;;;1940002;74;21093;-72
2021/07/04 09:06:45;;;;;;;20.62;14.50;;;22.40;99.90;;;;;;1941269;73;21081;-72
2021/07/04 09:09:25;;;;;;;25.88;15.15;;;22.40;99.90;;;;;;1942402;73;21582;-72
2021/07/04 09:11:58;;;;;;;24.37;15.30;;;22.40;99.90;;;;;;1934552;73;21600;-72
2021/07/04 09:14:40;;;;;;;26.30;16.40;;;22.40;99.90;;;;;;1922533;74;21151;-72
2021/07/04 09:17:10;;;;;;;25.75;16.10;;;22.40;99.90;;;;;;1939204;74;21195;-72
2021/07/04 09:19:43;;;;;;;25.68;15.55;;;22.40;99.90;;;;;;1928866;74;21091;-72
2021/07/04 09:22:11;;;;;;;27.75;15.03;;;22.50;99.90;;;;;;1871200;73;21401;-73
2021/07/04 09:24:43;;;;;;;26.97;15.40;;;22.50;99.90;;;;;;1816606;78;21189;-74
2021/07/04 09:27:15;;;;;;;24.37;15.60;;;22.50;99.90;;;;;;1836807;77;21031;-73
2021/07/04 09:29:53;;;;;;;28.25;16.32;;;22.50;99.90;;;;;;1830063;77;21066;-73
2021/07/04 09:32:29;;;;;;;23.00;14.25;;;22.60;99.90;;;;;;1858445;76;21120;-73
2021/07/04 09:35:03;;;;;;;20.90;14.30;;;22.60;99.90;;;;;;1869620;75;21645;-74
2021/07/04 09:37:42;;;;;;;22.87;13.72;;;22.60;99.90;;;;;;1874904;75;21068;-74
2021/07/04 09:40:23;;;;;;;24.80;13.65;;;22.60;99.90;;;;;;1867697;75;21070;-76
2021/07/04 09:43:14;;;;;;;23.83;14.03;;;22.70;99.90;;;;;;1870345;76;21121;-72
2021/07/04 09:45:50;;;;;;;20.50;13.43;;;22.70;99.90;;;;;;1869928;75;21178;-73
2021/07/04 09:48:21;;;;;;;20.17;13.60;;;22.70;99.90;;;;;;1867058;75;21047;-72
2021/07/04 09:50:53;;;;;;;17.98;12.98;;;22.70;99.90;;;;;;1866589;75;21558;-73
2021/07/04 09:53:22;;;;;;;22.77;13.62;;;22.70;99.90;;;;;;1874634;76;21642;-73
2021/07/04 09:55:52;;;;;;;22.52;14.05;;;22.80;99.90;;;;;;1858156;75;21050;-74
2021/07/04 09:58:20;;;;;;;19.62;13.62;;;22.80;99.90;;;;;;1843815;78;21145;-73
2021/07/04 10:00:48;;;;;;;18.17;13.30;;;22.80;99.90;;;;;;1862055;75;21159;-74
2021/07/04 10:03:21;;;;;;;19.65;13.30;;;22.90;99.90;;;;;;1860854;75;21484;-74
2021/07/04 10:05:55;;;;;;;21.15;14.93;;;22.90;99.90;;;;;;1861081;75;21069;-74
2021/07/04 10:08:33;;;;;;;21.00;13.55;;;22.90;99.90;;;;;;1865305;77;21152;-74
2021/07/04 10:11:10;;;;;;;24.80;15.03;;;22.90;99.90;;;;;;1867977;76;21157;-73
2021/07/04 10:13:40;;;;;;;20.92;13.40;;;23.00;99.90;;;;;;1861022;76;21104;-73
2021/07/04 10:16:10;;;;;;;19.50;12.63;;;23.00;99.90;;;;;;1863433;75;21592;-73
2021/07/04 10:18:40;;;;;;;23.70;13.20;;;23.00;99.90;;;;;;1867575;76;21097;-73
2021/07/04 10:21:08;;;;;;;20.72;13.62;;;23.00;99.90;;;;;;1864357;76;21162;-73
2021/07/04 10:23:37;;;;;;;20.05;13.25;;;23.10;99.90;;;;;;1856582;77;21101;-73
2021/07/04 10:26:05;;;;;;;18.57;12.68;;;23.10;99.90;;;;;;1857722;76;21114;-75
2021/07/04 10:28:38;;;;;;;20.43;13.60;;;23.10;99.90;;;;;;1860870;75;21183;-74
2021/07/04 10:31:11;;;;;;;22.25;13.48;;;23.20;99.90;;;;;;1856493;76;22151;-73
2021/07/04 10:33:38;;;;;;;18.42;12.95;;;23.10;99.90;;;;;;1856580;77;21089;-73
2021/07/04 10:36:09;;;;;;;17.40;12.28;;;23.10;99.90;;;;;;1858273;75;21093;-73
2021/07/04 10:38:39;;;;;;;19.27;13.78;;;23.20;99.90;;;;;;1856878;75;21106;-73
2021/07/04 10:41:09;;;;;;;18.00;12.40;;;23.20;99.90;;;;;;1864171;75;21509;-73
2021/07/04 10:44:00;;;;;;;18.65;12.75;;;23.20;99.90;;;;;;1863304;75;21100;-73
2021/07/04 10:46:46;;;;;;;20.32;11.97;;;23.20;99.90;;;;;;1871599;75;21672;-73
2021/07/04 10:49:22;;;;;;;17.65;12.63;;;23.20;99.90;;;;;;1863319;76;21145;-73
2021/07/04 10:52:00;;;;;;;18.95;12.05;;;23.20;99.90;;;;;;1861409;75;21126;-73
2021/07/04 10:54:44;;;;;;;19.77;12.18;;;23.20;99.90;;;;;;1871837;75;21129;-74
2021/07/04 10:57:19;;;;;;;21.20;12.23;;;23.20;99.90;;;;;;1863261;76;21641;-75
2021/07/04 11:00:04;;;;;;;19.17;12.07;;;23.30;99.90;;;;;;1863393;76;21159;-73
2021/07/04 11:02:46;;;;;;;18.62;12.10;;;23.30;99.90;;;;;;1870743;76;21266;-73
2021/07/04 11:05:41;;;;;;;15.93;12.28;;;23.30;99.90;;;;;;1858394;75;22141;-73
2021/07/04 11:08:11;;;;;;;13.75;11.20;;;23.40;99.90;;;;;;1876431;75;21186;-74
2021/07/04 11:10:42;;;;;;;14.33;10.78;;;23.40;99.90;;;;;;1868986;75;21576;-73
2021/07/04 11:13:13;;;;;;;15.53;11.20;;;23.40;99.90;;;;;;1842851;76;21081;-73
2021/07/04 11:15:42;;;;;;;21.20;12.47;;;23.50;99.90;;;;;;1860991;76;21134;-73
2021/07/04 11:18:15;;;;;;;13.48;11.08;;;23.50;99.90;;;;;;1860983;77;21081;-73
2021/07/04 11:20:47;;;;;;;12.50;11.18;;;23.60;99.90;;;;;;1868521;75;21656;-73
2021/07/04 11:23:25;;;;;;;15.50;11.38;;;23.70;99.90;;;;;;1857316;77;21101;-73
2021/07/04 11:25:56;;;;;;;16.00;11.18;;;23.70;99.90;;;;;;1867158;76;21496;-73
2021/07/04 11:28:26;;;;;;;13.18;10.68;;;23.70;99.90;;;;;;1872146;75;21521;-74
2021/07/04 11:31:07;;;;;;;14.10;10.03;;;23.80;99.90;;;;;;1864227;76;21409;-74
2021/07/04 11:33:40;;;;;;;12.20;10.13;;;23.90;99.90;;;;;;1872877;76;21608;-73
2021/07/04 11:36:20;;;;;;;12.68;9.85;;;23.90;99.90;;;;;;1864774;76;21073;-74
2021/07/04 11:38:53;;;;;;;12.13;9.23;;;24.00;99.90;;;;;;1876624;76;21135;-70
2021/07/04 11:41:29;;;;;;;10.95;9.50;;;24.10;99.90;;;;;;1873436;75;21629;-71
2021/07/04 11:44:00;;;;;;;12.05;9.40;;;24.10;99.90;;;;;;1867353;75;21516;-71
2021/07/04 11:46:30;;;;;;;9.98;8.63;;;24.10;99.90;;;;;;1855599;76;21086;-73
2021/07/04 11:49:03;;;;;;;9.28;7.20;;;24.20;99.90;;;;;;1859445;75;21098;-72
2021/07/04 11:51:36;;;;;;;8.65;7.33;;;24.20;99.90;;;;;;1871960;75;21093;-72
2021/07/04 11:54:12;;;;;;;13.22;7.40;;;24.30;99.90;;;;;;1859642;75;21148;-70
2021/07/04 11:56:42;;;;;;;8.25;6.47;;;24.30;99.90;;;;;;1868352;75;21175;-71
2021/07/04 11:59:18;;;;;;;6.55;5.03;;;24.30;99.90;;;;;;1870893;75;21128;-71
2021/07/04 12:01:51;;;;;;;5.42;4.17;;;24.40;99.90;;;;;;1858426;75;21211;-71
2021/07/04 12:04:21;;;;;;;6.85;3.70;;;24.40;99.90;;;;;;1861734;75;21125;-71
2021/07/04 12:06:53;;;;;;;6.97;3.98;;;24.40;99.90;;;;;;1862043;75;21092;-71
2021/07/04 12:09:23;;;;;;;7.20;4.90;;;24.50;99.90;;;;;;1860546;77;21143;-71
2021/07/04 12:11:53;;;;;;;4.92;3.98;;;24.60;99.90;;;;;;1871187;76;21113;-72
2021/07/04 12:14:23;;;;;;;4.75;2.37;;;24.70;99.90;;;;;;1870434;75;21074;-71
2021/07/04 12:16:52;;;;;;;3.70;2.70;;;24.80;99.90;;;;;;1869738;75;21167;-70
2021/07/04 12:19:31;;;;;;;4.70;3.33;;;24.80;99.90;;;;;;1865054;75;22517;-70
2021/07/04 12:22:01;;;;;;;3.35;2.85;;;24.90;99.90;;;;;;1858851;75;21608;-72
2021/07/04 12:24:36;;;;;;;3.92;3.15;;;24.90;99.90;;;;;;1856511;77;21122;-71
2021/07/04 12:27:04;;;;;;;3.58;3.22;;;24.80;99.90;;;;;;1864148;75;21093;-71
2021/07/04 12:29:32;;;;;;;4.55;3.67;;;24.90;99.90;;;;;;1865048;76;21557;-71
2021/07/04 12:32:05;;;;;;;3.85;3.45;;;24.90;99.90;;;;;;1874526;75;21119;-71
2021/07/04 12:34:35;;;;;;;4.70;3.77;;;25.00;99.90;;;;;;1858924;76;21093;-71
2021/07/04 12:37:02;;;;;;;4.08;3.55;;;25.10;99.90;;;;;;1872541;76;21079;-71
2021/07/04 12:39:34;;;;;;;3.75;3.37;;;25.10;99.90;;;;;;1870666;76;21085;-71
2021/07/04 12:42:01;;;;;;;5.90;3.47;;;25.10;99.90;;;;;;1875750;75;21089;-71
2021/07/04 12:44:29;;;;;;;4.85;3.72;;;25.20;99.90;;;;;;1875985;76;20987;-70
2021/07/04 12:46:56;;;;;;;4.17;3.45;;;25.20;99.90;;;;;;1875667;75;21032;-70
2021/07/04 12:49:24;;;;;;;4.62;3.70;;;25.20;99.90;;;;;;1875811;76;21089;-70
2021/07/04 12:51:51;;;;;;;5.12;3.25;;;25.30;99.90;;;;;;1864121;76;21567;-70